Time,TemperatureF,DewpointF,PressureIn,WindDirection,WindDirectionDegrees,WindSpeedMPH,WindSpeedGustMPH,Humidity,HourlyPrecipIn,Conditions,Clouds,dailyrainin,SoftwareType,DateUTC
2013-09-21 00:23:00,56.0,53.0,-100.00,North,10,9.0,16.0,90,-99.99,,,-99.99,,2013-09-21 05:23:00,
2013-09-21 00:53:00,56.0,53.0,-100.00,North,10,10.0,14.0,91,-99.99,,,-99.99,,2013-09-21 05:53:00,
2013-09-21 01:22:00,55.0,53.0,-100.00,North,10,11.0,15.0,91,-99.99,,,-99.99,,2013-09-21 06:22:00,
2013-09-21 01:53:00,55.0,53.0,-100.00,NNE,15,10.0,16.0,92,-99.99,,,-99.99,,2013-09-21 06:53:00,
2013-09-21 02:22:00,54.0,52.0,-100.00,NNE,15,10.0,18.0,93,-99.99,,,-99.99,,2013-09-21 07:22:00,
2013-09-21 02:52:00,53.0,52.0,-100.00,North,10,8.0,14.0,94,-99.99,,,-99.99,,2013-09-21 07:52:00,
2013-09-21 03:22:00,53.0,51.0,-100.00,North,10,9.0,14.0,95,-99.99,,,-99.99,,2013-09-21 08:22:00,
2013-09-21 03:52:00,52.0,51.0,-100.00,North,10,8.0,12.0,95,-99.99,,,-99.99,,2013-09-21 08:52:00,
2013-09-21 04:22:00,51.0,50.0,-100.00,North,10,7.0,11.0,95,-99.99,,,-99.99,,2013-09-21 09:22:00,
2013-09-21 04:54:00,51.0,50.0,-100.00,North,10,7.0,11.0,96,-99.99,,,-99.99,,2013-09-21 09:54:00,
2013-09-21 05:23:00,50.0,49.0,-100.00,North,10,6.0,9.0,96,-99.99,,,-99.99,,2013-09-21 10:23:00,
2013-09-21 05:52:00,50.0,49.0,-100.00,NNE,15,7.0,10.0,96,-99.99,,,-99.99,,2013-09-21 10:52:00,
2013-09-21 06:23:00,50.0,49.0,-100.00,NNE,15,9.0,13.0,96,-99.99,,,-99.99,,2013-09-21 11:23:00,
2013-09-21 06:52:00,50.0,49.0,-100.00,NNE,15,8.0,13.0,96,-99.99,,,-99.99,,2013-09-21 11:52:00,
2013-09-21 07:22:00,49.0,48.0,-100.00,North,10,9.0,14.0,96,-99.99,,,-99.99,,2013-09-21 12:22:00,
2013-09-21 07:52:00,50.0,49.0,-100.00,North,10,9.0,11.0,96,-99.99,,,-99.99,,2013-09-21 12:52:00,
2013-09-21 08:21:00,51.0,50.0,-100.00,North,10,9.0,14.0,96,-99.99,,,-99.99,,2013-09-21 13:21:00,
2013-09-21 08:52:00,53.0,51.0,-100.00,North,10,11.0,14.0,95,-99.99,,,-99.99,,2013-09-21 13:52:00,
2013-09-21 09:22:00,55.0,52.0,-100.00,NNE,15,11.0,15.0,89,-99.99,,,-99.99,,2013-09-21 14:22:00,
2013-09-21 09:52:00,56.0,52.0,-100.00,NNE,15,11.0,19.0,85,-99.99,,,-99.99,,2013-09-21 14:52:00,
2013-09-21 10:22:00,58.0,50.0,-100.00,NNE,20,11.0,15.0,73,-99.99,,,-99.99,,2013-09-21 15:22:00,
2013-09-21 10:55:00,61.0,48.0,-100.00,NNE,20,9.0,16.0,62,-99.99,,,-99.99,,2013-09-21 15:55:00,
2013-09-21 11:24:00,62.0,44.0,-100.00,NNE,15,11.0,17.0,53,-99.99,,,-99.99,,2013-09-21 16:24:00,
2013-09-21 11:54:00,63.0,43.0,-100.00,NNE,15,13.0,19.0,49,-99.99,,,-99.99,,2013-09-21 16:54:00,
2013-09-21 12:23:00,64.0,43.0,-100.00,NNE,15,13.0,19.0,47,-99.99,,,-99.99,,2013-09-21 17:23:00,
2013-09-21 12:52:00,65.0,44.0,-100.00,NNE,15,10.0,19.0,46,-99.99,,,-99.99,,2013-09-21 17:52:00,
2013-09-21 13:22:00,65.0,43.0,-100.00,North,10,13.0,20.0,45,-99.99,,,-99.99,,2013-09-21 18:22:00,
2013-09-21 13:52:00,66.0,43.0,-100.00,NNE,15,13.0,17.0,43,-99.99,,,-99.99,,2013-09-21 18:52:00,
2013-09-21 14:22:00,67.0,44.0,-100.00,North,10,10.0,18.0,43,-99.99,,,-99.99,,2013-09-21 19:22:00,
2013-09-21 14:52:00,68.0,43.0,-100.00,North,5,14.0,19.0,41,-99.99,,,-99.99,,2013-09-21 19:52:00,
2013-09-21 15:22:00,68.0,44.0,-100.00,North,10,12.0,20.0,41,-99.99,,,-99.99,,2013-09-21 20:22:00,
2013-09-21 15:52:00,67.0,44.0,-100.00,North,10,10.0,18.0,42,-99.99,,,-99.99,,2013-09-21 20:52:00,
2013-09-21 16:22:00,67.0,44.0,-100.00,North,10,10.0,18.0,43,-99.99,,,-99.99,,2013-09-21 21:22:00,
2013-09-21 16:54:00,68.0,43.0,-100.00,North,10,12.0,19.0,41,-99.99,,,-99.99,,2013-09-21 21:54:00,
2013-09-21 17:23:00,67.0,43.0,-100.00,North,10,11.0,24.0,41,-99.99,,,-99.99,,2013-09-21 22:23:00,
2013-09-21 17:53:00,67.0,43.0,-100.00,North,5,11.0,17.0,42,-99.99,,,-99.99,,2013-09-21 22:53:00,
2013-09-21 18:23:00,65.0,43.0,-100.00,North,5,11.0,16.0,44,-99.99,,,-99.99,,2013-09-21 23:23:00,
2013-09-21 18:53:00,64.0,43.0,-100.00,North,5,5.0,11.0,47,-99.99,,,-99.99,,2013-09-21 23:53:00,
2013-09-21 19:22:00,61.0,44.0,-100.00,North,5,4.0,6.0,53,-99.99,,,-99.99,,2013-09-22 00:22:00,
2013-09-21 19:52:00,57.0,47.0,-100.00,North,5,2.0,5.0,67,-99.99,,,-99.99,,2013-09-22 00:52:00,
2013-09-21 20:21:00,55.0,48.0,-100.00,North,5,1.0,4.0,78,-99.99,,,-99.99,,2013-09-22 01:21:00,
2013-09-21 20:52:00,53.0,48.0,-100.00,North,0,5.0,6.0,83,-99.99,,,-99.99,,2013-09-22 01:52:00,
2013-09-21 21:22:00,52.0,48.0,-100.00,North,0,3.0,5.0,86,-99.99,,,-99.99,,2013-09-22 02:22:00,
2013-09-21 21:52:00,51.0,48.0,-100.00,North,0,1.0,4.0,90,-99.99,,,-99.99,,2013-09-22 02:52:00,
2013-09-21 22:22:00,49.0,47.0,-100.00,North,0,1.0,4.0,92,-99.99,,,-99.99,,2013-09-22 03:22:00,
2013-09-21 22:54:00,48.0,46.0,-100.00,North,0,1.0,4.0,94,-99.99,,,-99.99,,2013-09-22 03:54:00,
2013-09-21 23:02:00,-999.0,-99.9,-100.00,North,0,1.0,3.0,-999,-99.99,,,-99.99,,2013-09-22 04:02:00,
2013-09-21 23:23:00,47.0,45.0,-100.00,North,0,1.0,1.0,94,-99.99,,,-99.99,,2013-09-22 04:23:00,
2013-09-21 23:54:00,46.0,45.0,-100.00,North,0,1.0,1.0,95,-99.99,,,-99.99,,2013-09-22 04:54:00,